Time;durP1;ratioP1;P1;durP2;ratioP2;P2;SDS_P1;SDS_P2;PMS_P1;PMS_P2;Temp;Humidity;BMP_temperature;BMP_pressure;BME280_temperature;BME280_humidity;BME280_pressure;Samples;Min_cycle;Max_cycle;Signal;HPM_P1;HPM_P2
2021/04/11 00:02:05;;;;;;;8.05;5.75;;;5.60;98.90;;;;;;4960020;28;20041;-82
2021/04/11 00:04:31;;;;;;;8.23;5.80;;;5.60;98.80;;;;;;4946764;29;20484;-82
2021/04/11 00:06:57;;;;;;;8.38;6.15;;;5.50;98.80;;;;;;4933109;28;20077;-82
2021/04/11 00:09:22;;;;;;;7.45;5.68;;;5.50;98.80;;;;;;4942750;29;20042;-81
2021/04/11 00:11:48;;;;;;;7.93;6.07;;;5.50;98.80;;;;;;4940672;28;20114;-82
2021/04/11 00:14:14;;;;;;;8.05;6.25;;;5.50;98.90;;;;;;4973635;28;20027;-83
2021/04/11 00:16:39;;;;;;;7.78;5.68;;;5.50;98.90;;;;;;4961015;28;20148;-82
2021/04/11 00:19:05;;;;;;;7.88;5.75;;;5.50;99.10;;;;;;4934837;28;20051;-83
2021/04/11 00:21:31;;;;;;;7.70;5.68;;;5.50;98.80;;;;;;4919865;29;20104;-83
2021/04/11 00:23:56;;;;;;;8.95;5.95;;;5.50;98.90;;;;;;4935537;29;20070;-83
2021/04/11 00:26:22;;;;;;;8.40;5.72;;;5.50;98.90;;;;;;4922731;29;20421;-83
2021/04/11 00:28:48;;;;;;;9.60;6.45;;;5.50;98.90;;;;;;4953249;28;20046;-83
2021/04/11 00:31:13;;;;;;;8.85;6.15;;;5.40;98.90;;;;;;4947472;29;20063;-84
2021/04/11 00:33:43;;;;;;;9.13;6.32;;;5.40;99.00;;;;;;4930390;29;20035;-84
2021/04/11 00:36:13;;;;;;;8.05;5.85;;;5.40;98.80;;;;;;4939348;28;20024;-84
2021/04/11 00:38:39;;;;;;;11.15;6.03;;;5.40;98.90;;;;;;4953124;28;20517;-84
2021/04/11 00:41:26;;;;;;;7.78;5.82;;;5.40;98.90;;;;;;4952662;28;20035;-84
2021/04/11 00:43:52;;;;;;;8.75;6.20;;;5.40;98.80;;;;;;4952935;28;20477;-84
2021/04/11 00:46:40;;;;;;;8.27;5.97;;;5.40;98.80;;;;;;4937179;29;20544;-84
2021/04/11 00:49:12;;;;;;;8.75;5.97;;;5.40;98.90;;;;;;4954649;28;20041;-83
2021/04/11 00:51:38;;;;;;;7.15;5.47;;;5.30;98.90;;;;;;4955391;28;20098;-84
2021/04/11 00:54:06;;;;;;;8.40;6.05;;;5.30;98.90;;;;;;4932846;28;20122;-84
2021/04/11 00:56:33;;;;;;;8.05;5.75;;;5.30;98.90;;;;;;4953858;28;20377;-84
2021/04/11 00:59:01;;;;;;;9.95;5.70;;;5.30;98.80;;;;;;4945196;29;20070;-84
2021/04/11 01:01:27;;;;;;;8.32;6.05;;;5.30;98.80;;;;;;4920613;28;20469;-84
2021/04/11 01:03:53;;;;;;;7.63;6.00;;;5.30;98.90;;;;;;4940247;28;20077;-84
2021/04/11 01:06:40;;;;;;;7.55;5.72;;;5.30;98.90;;;;;;4937071;29;20445;-84
2021/04/11 01:09:19;;;;;;;8.43;6.22;;;5.30;98.90;;;;;;4936844;29;20050;-84
2021/04/11 01:11:46;;;;;;;9.35;7.30;;;5.30;98.80;;;;;;4936904;28;20032;-84
2021/04/11 01:14:14;;;;;;;8.25;6.50;;;5.30;98.80;;;;;;4929453;28;20030;-84
2021/04/11 01:16:40;;;;;;;8.65;5.75;;;5.30;98.70;;;;;;4956349;28;20030;-83
2021/04/11 01:19:24;;;;;;;10.27;7.10;;;5.30;98.70;;;;;;4933123;29;20030;-84
2021/04/11 01:22:17;;;;;;;10.93;6.95;;;5.20;98.70;;;;;;4969133;28;20035;-83
2021/04/11 01:24:46;;;;;;;9.10;7.15;;;5.20;98.80;;;;;;4954538;28;20113;-83
2021/04/11 01:27:16;;;;;;;10.27;6.82;;;5.20;98.70;;;;;;4956010;28;20027;-83
2021/04/11 01:29:44;;;;;;;8.68;6.45;;;5.10;98.80;;;;;;4956058;28;20050;-83
2021/04/11 01:32:10;;;;;;;9.73;7.00;;;5.10;98.80;;;;;;4966458;28;20045;-83
2021/04/11 01:34:37;;;;;;;9.30;7.10;;;5.10;98.80;;;;;;4954629;28;20047;-82
2021/04/11 01:37:04;;;;;;;9.68;7.38;;;5.10;98.80;;;;;;4937510;28;20586;-83
2021/04/11 01:39:36;;;;;;;9.65;7.40;;;5.10;98.70;;;;;;4957358;28;20022;-83
2021/04/11 01:42:03;;;;;;;10.98;7.32;;;5.10;98.70;;;;;;4959189;28;20387;-83
2021/04/11 01:44:33;;;;;;;9.98;7.32;;;5.10;98.70;;;;;;4952389;28;20022;-84
2021/04/11 01:46:59;;;;;;;10.13;7.50;;;5.00;98.70;;;;;;4977899;28;20034;-83
2021/04/11 01:49:26;;;;;;;10.65;6.93;;;5.10;98.70;;;;;;4958721;28;20090;-84
2021/04/11 01:51:58;;;;;;;8.98;6.68;;;5.00;98.70;;;;;;4957634;28;20037;-83
2021/04/11 01:54:28;;;;;;;9.48;6.68;;;5.00;98.70;;;;;;4976539;28;20121;-83
2021/04/11 01:56:54;;;;;;;9.13;6.88;;;5.00;98.70;;;;;;4973850;28;20065;-83
2021/04/11 01:59:25;;;;;;;8.82;6.90;;;4.90;98.70;;;;;;4932077;28;20027;-83
2021/04/11 02:02:07;;;;;;;9.35;6.93;;;5.00;98.80;;;;;;4957692;28;20031;-82
2021/04/11 02:04:32;;;;;;;9.68;6.85;;;4.90;98.80;;;;;;4924088;29;20027;-82
2021/04/11 02:07:03;;;;;;;10.23;6.72;;;4.90;98.80;;;;;;4938492;28;20366;-83
2021/04/11 02:09:36;;;;;;;10.27;6.83;;;4.90;98.80;;;;;;4966177;28;20543;-82
2021/04/11 02:12:04;;;;;;;11.10;6.68;;;4.90;98.80;;;;;;4981207;28;20293;-82
2021/04/11 02:14:30;;;;;;;8.70;6.13;;;4.90;98.90;;;;;;4958615;28;20019;-83
2021/04/11 02:16:56;;;;;;;9.23;6.40;;;4.90;98.80;;;;;;4958675;28;20031;-83
2021/04/11 02:19:26;;;;;;;7.95;6.00;;;4.90;98.90;;;;;;4937868;29;20055;-83
2021/04/11 02:21:58;;;;;;;8.18;5.78;;;4.90;98.90;;;;;;4939540;29;20114;-82
2021/04/11 02:24:24;;;;;;;8.40;6.15;;;4.90;98.90;;;;;;4974832;28;20026;-83
2021/04/11 02:26:50;;;;;;;9.65;6.47;;;4.90;99.00;;;;;;4977780;28;20034;-82
2021/04/11 02:29:19;;;;;;;10.13;6.53;;;4.90;99.00;;;;;;4961534;28;20047;-82
2021/04/11 02:31:45;;;;;;;8.27;5.97;;;4.90;98.90;;;;;;4958541;28;20043;-82
2021/04/11 02:34:24;;;;;;;8.50;6.38;;;4.90;98.90;;;;;;4972185;28;20027;-82
2021/04/11 02:37:24;;;;;;;10.05;6.15;;;4.80;98.90;;;;;;4958967;28;20110;-82
2021/04/11 02:39:54;;;;;;;10.02;6.60;;;4.90;98.90;;;;;;4940638;28;20436;-83
2021/04/11 02:42:23;;;;;;;9.15;6.63;;;4.80;98.90;;;;;;4958313;28;20033;-83
2021/04/11 02:44:51;;;;;;;11.10;7.13;;;4.80;99.00;;;;;;4957793;28;20033;-83
2021/04/11 02:47:17;;;;;;;8.88;6.05;;;4.80;99.00;;;;;;4958138;28;20110;-83
2021/04/11 02:49:44;;;;;;;8.57;6.18;;;4.80;99.00;;;;;;4953148;28;20497;-83
2021/04/11 02:52:27;;;;;;;7.88;5.93;;;4.80;99.10;;;;;;4937976;29;20047;-83
2021/04/11 02:54:54;;;;;;;9.55;6.22;;;4.90;99.10;;;;;;4951317;28;20110;-83
2021/04/11 02:57:20;;;;;;;9.82;6.20;;;4.90;99.10;;;;;;4938695;29;20473;-85
2021/04/11 02:59:46;;;;;;;8.32;6.03;;;4.90;99.10;;;;;;4938772;29;20473;-86
2021/04/11 03:02:14;;;;;;;8.40;5.57;;;4.90;99.10;;;;;;4948247;28;20261;-86
2021/04/11 03:04:40;;;;;;;8.10;5.47;;;4.90;99.10;;;;;;4954519;28;20117;-86
2021/04/11 03:07:14;;;;;;;8.07;5.30;;;4.90;99.10;;;;;;4954860;28;20150;-85
2021/04/11 03:09:50;;;;;;;7.43;5.22;;;4.90;99.40;;;;;;4975533;28;20568;-85
2021/04/11 03:12:19;;;;;;;8.27;5.25;;;4.90;99.20;;;;;;4960099;28;20384;-86
2021/04/11 03:14:46;;;;;;;6.70;5.25;;;4.90;99.20;;;;;;4946820;28;20260;-86
2021/04/11 03:17:20;;;;;;;5.80;4.30;;;4.90;99.20;;;;;;4973855;28;20077;-85
2021/04/11 03:20:07;;;;;;;6.18;4.20;;;4.90;99.20;;;;;;4956953;28;20106;-86
2021/04/11 03:22:33;;;;;;;6.25;3.90;;;4.90;99.10;;;;;;4941900;28;20126;-87
2021/04/11 03:24:59;;;;;;;6.60;3.75;;;4.90;99.10;;;;;;4948685;29;20110;-86
2021/04/11 03:27:35;;;;;;;6.05;3.40;;;4.90;99.10;;;;;;4935324;29;20148;-86
2021/04/11 03:30:12;;;;;;;5.40;3.40;;;4.90;99.10;;;;;;4970905;28;20484;-86
2021/04/11 03:32:48;;;;;;;3.95;2.88;;;4.90;99.10;;;;;;4950931;28;20038;-86
2021/04/11 03:35:18;;;;;;;5.85;3.75;;;4.90;99.10;;;;;;4948522;29;20024;-86
2021/04/11 03:37:45;;;;;;;4.60;3.00;;;4.80;99.10;;;;;;4947628;29;20035;-86
2021/04/11 03:40:15;;;;;;;4.28;3.30;;;4.90;99.10;;;;;;4925152;29;20027;-87
2021/04/11 03:42:45;;;;;;;4.82;2.92;;;4.90;99.20;;;;;;4937614;28;20071;-86
2021/04/11 03:45:12;;;;;;;4.57;2.80;;;4.90;99.10;;;;;;4945394;29;20122;-86
2021/04/11 03:47:49;;;;;;;3.47;2.80;;;4.90;99.10;;;;;;4953915;29;20038;-86
2021/04/11 03:50:30;;;;;;;3.53;2.50;;;4.80;99.10;;;;;;4963351;28;20078;-86
2021/04/11 03:53:10;;;;;;;4.28;2.55;;;4.80;99.10;;;;;;4945743;29;20049;-86
2021/04/11 03:55:40;;;;;;;3.35;2.42;;;4.80;99.20;;;;;;4937620;29;20027;-86
2021/04/11 03:58:13;;;;;;;3.30;2.67;;;4.80;99.20;;;;;;4949503;28;20030;-86
2021/04/11 04:00:46;;;;;;;4.32;2.70;;;4.80;99.20;;;;;;4951796;29;20078;-86
2021/04/11 04:03:16;;;;;;;3.75;2.50;;;4.80;99.20;;;;;;4937450;29;20062;-86
2021/04/11 04:05:43;;;;;;;3.72;2.78;;;4.80;99.20;;;;;;4937401;29;20511;-86
2021/04/11 04:08:09;;;;;;;4.40;3.20;;;4.90;99.30;;;;;;4947854;28;20038;-83
2021/04/11 04:10:41;;;;;;;4.40;3.10;;;4.80;99.20;;;;;;4956517;28;20159;-84
2021/04/11 04:13:19;;;;;;;4.97;3.00;;;4.80;99.20;;;;;;4973784;28;20031;-83
2021/04/11 04:16:16;;;;;;;4.50;3.17;;;4.80;99.30;;;;;;4955748;28;20089;-83
2021/04/11 04:19:23;;;;;;;3.88;2.55;;;4.80;99.20;;;;;;4973868;28;20465;-83
2021/04/11 04:22:09;;;;;;;3.92;2.72;;;4.80;99.20;;;;;;4919321;29;20039;-83
2021/04/11 04:24:46;;;;;;;4.93;3.03;;;4.80;99.30;;;;;;4942831;28;20053;-83
2021/04/11 04:27:56;;;;;;;4.30;3.10;;;4.90;99.30;;;;;;4956337;28;20023;-84
2021/04/11 04:30:35;;;;;;;4.50;2.90;;;4.80;99.20;;;;;;4937128;28;20031;-84
2021/04/11 04:33:23;;;;;;;3.95;2.90;;;4.80;99.20;;;;;;4941493;28;20037;-84
2021/04/11 04:36:10;;;;;;;4.50;2.83;;;4.80;99.30;;;;;;4956182;28;20044;-84
2021/04/11 04:38:54;;;;;;;4.15;3.08;;;4.80;99.30;;;;;;4973613;28;20054;-84
2021/04/11 04:41:41;;;;;;;4.70;3.20;;;4.80;99.30;;;;;;4942495;28;20118;-84
2021/04/11 04:44:35;;;;;;;4.55;3.10;;;4.80;99.40;;;;;;4944073;29;20059;-83
2021/04/11 04:47:03;;;;;;;4.50;3.20;;;4.80;99.40;;;;;;4944830;28;20038;-84
2021/04/11 04:49:41;;;;;;;4.40;2.92;;;4.80;99.40;;;;;;4995083;23;20062;-91
2021/04/11 04:52:19;;;;;;;4.38;3.10;;;4.80;99.40;;;;;;4990330;28;20030;-92
2021/04/11 04:54:49;;;;;;;4.47;3.08;;;4.80;99.40;;;;;;4997503;28;20042;-92
2021/04/11 04:57:35;;;;;;;5.30;3.13;;;4.80;99.30;;;;;;4986008;28;20026;-93
2021/04/11 05:00:27;;;;;;;5.50;2.63;;;4.80;99.40;;;;;;4997735;28;20121;-92
2021/04/11 05:03:10;;;;;;;5.30;3.10;;;4.80;99.40;;;;;;5004140;28;20038;-96
2021/04/11 05:05:47;;;;;;;4.25;2.75;;;4.80;99.40;;;;;;4985282;28;20073;-94
2021/04/11 05:08:33;;;;;;;5.60;3.38;;;4.80;99.50;;;;;;4998947;28;20049;-92
2021/04/11 05:11:13;;;;;;;4.72;2.95;;;4.80;99.40;;;;;;4998237;28;20061;-94
2021/04/11 05:13:45;;;;;;;4.65;2.80;;;4.80;99.50;;;;;;4998978;28;20030;-94
2021/04/11 05:16:28;;;;;;;4.40;2.83;;;4.80;99.40;;;;;;5002004;28;20021;-94
2021/04/11 05:19:06;;;;;;;4.85;3.03;;;4.80;99.50;;;;;;4988643;28;20090;-95
2021/04/11 05:21:42;;;;;;;5.28;3.17;;;4.80;99.50;;;;;;4993545;28;20092;-93
2021/04/11 05:24:23;;;;;;;6.70;3.30;;;4.80;99.50;;;;;;4983369;28;20453;-96
2021/04/11 05:27:03;;;;;;;5.00;3.35;;;4.80;99.50;;;;;;4983228;28;20093;-95
2021/04/11 05:29:46;;;;;;;4.50;3.03;;;4.80;99.40;;;;;;4970794;28;20027;-93
2021/04/11 05:32:14;;;;;;;4.60;2.92;;;4.80;99.50;;;;;;4992779;28;20045;-93
2021/04/11 05:34:41;;;;;;;4.60;3.05;;;4.80;99.50;;;;;;4976914;28;20031;-94
2021/04/11 05:37:09;;;;;;;5.60;3.17;;;4.90;99.60;;;;;;4959842;28;20041;-94
2021/04/11 05:40:17;;;;;;;5.32;3.30;;;4.90;99.60;;;;;;5001841;28;20034;-95
2021/04/11 05:43:04;;;;;;;5.85;3.13;;;4.90;99.50;;;;;;4955602;28;20035;-94
2021/04/11 05:45:36;;;;;;;5.30;3.20;;;4.90;99.60;;;;;;4992074;28;20029;-91
2021/04/11 05:48:16;;;;;;;4.30;2.75;;;4.90;99.50;;;;;;4981557;28;20026;-92
2021/04/11 05:50:56;;;;;;;5.00;3.50;;;4.90;99.60;;;;;;4980850;28;20034;-94
2021/04/11 05:53:43;;;;;;;5.43;2.97;;;4.90;99.60;;;;;;5002924;28;20030;-93
2021/04/11 05:56:18;;;;;;;5.85;3.40;;;4.90;99.60;;;;;;4986390;28;20026;-94
2021/04/11 05:58:50;;;;;;;6.22;3.33;;;4.90;99.60;;;;;;4980490;28;20018;-93
2021/04/11 06:01:23;;;;;;;5.28;3.22;;;4.90;99.60;;;;;;4996464;28;20029;-94
2021/04/11 06:04:04;;;;;;;5.88;3.03;;;4.90;99.60;;;;;;5018085;28;20028;-95
2021/04/11 06:06:52;;;;;;;5.03;3.23;;;4.90;99.60;;;;;;4999322;28;20551;-93
2021/04/11 06:09:25;;;;;;;6.47;3.22;;;4.90;99.60;;;;;;5007460;28;20026;-94
2021/04/11 06:12:01;;;;;;;5.75;3.17;;;5.00;99.70;;;;;;4983213;28;20054;-92
2021/04/11 06:14:43;;;;;;;5.38;3.00;;;4.90;99.50;;;;;;4991180;28;20029;-95
2021/04/11 06:17:11;;;;;;;4.90;3.22;;;5.00;99.60;;;;;;4995687;28;20019;-92
2021/04/11 06:19:38;;;;;;;5.35;3.00;;;4.90;99.50;;;;;;4980694;28;20470;-91
2021/04/11 06:22:24;;;;;;;5.13;3.30;;;4.90;99.50;;;;;;4993878;28;20030;-92
2021/04/11 06:25:12;;;;;;;4.28;2.85;;;4.90;99.50;;;;;;4992579;28;20014;-94
2021/04/11 06:28:07;;;;;;;6.28;2.90;;;5.00;99.60;;;;;;4984968;28;20471;-96
2021/04/11 06:30:41;;;;;;;4.00;2.92;;;5.00;99.60;;;;;;4973069;28;20041;-94
2021/04/11 06:33:13;;;;;;;3.92;2.67;;;4.90;99.60;;;;;;4993768;28;20490;-94
2021/04/11 06:35:48;;;;;;;4.63;3.00;;;5.00;99.60;;;;;;5002854;28;20050;-94
2021/04/11 06:38:18;;;;;;;4.13;2.75;;;5.00;99.60;;;;;;5021888;28;20026;-92
2021/04/11 06:41:27;;;;;;;4.17;2.67;;;5.00;99.60;;;;;;5007472;28;20105;-90
2021/04/11 06:44:05;;;;;;;3.85;2.63;;;5.00;99.60;;;;;;4987440;28;20293;-91
2021/04/11 06:46:58;;;;;;;5.90;2.85;;;5.00;99.60;;;;;;4985678;28;20026;-92
2021/04/11 06:49:57;;;;;;;5.10;2.70;;;5.00;99.60;;;;;;4961992;28;605293;-92
2021/04/11 06:52:49;;;;;;;5.78;2.50;;;5.00;99.70;;;;;;4982536;28;20112;-94
2021/04/11 06:55:41;;;;;;;4.30;2.40;;;5.00;99.70;;;;;;4974353;28;20045;-94
2021/04/11 06:58:21;;;;;;;4.00;2.50;;;5.10;99.80;;;;;;4963936;28;20042;-91
2021/04/11 07:01:21;;;;;;;3.90;2.33;;;5.10;99.80;;;;;;4987510;28;20486;-93
2021/04/11 07:04:05;;;;;;;3.00;2.10;;;5.10;99.70;;;;;;4993195;28;20062;-94
2021/04/11 07:06:40;;;;;;;2.85;2.00;;;5.10;99.70;;;;;;4990208;28;20019;-92
2021/04/11 07:09:15;;;;;;;3.38;1.98;;;5.20;99.90;;;;;;5008019;28;20054;-90
2021/04/11 07:12:14;;;;;;;5.05;2.20;;;5.20;99.90;;;;;;4989390;28;20080;-94
2021/04/11 07:14:49;;;;;;;4.82;2.13;;;5.20;99.80;;;;;;5009423;28;20036;-92
2021/04/11 07:17:30;;;;;;;3.85;2.25;;;5.20;99.70;;;;;;4997223;28;20026;-89
2021/04/11 07:20:22;;;;;;;3.53;2.30;;;5.30;99.70;;;;;;5013771;28;20029;-93
2021/04/11 07:23:12;;;;;;;5.07;2.10;;;5.30;99.80;;;;;;4997232;28;20031;-93
2021/04/11 07:26:02;;;;;;;3.55;2.10;;;5.30;99.90;;;;;;4975305;28;20022;-94
2021/04/11 07:28:49;;;;;;;3.38;1.90;;;5.30;99.90;;;;;;5001105;28;20034;-92
2021/04/11 07:31:34;;;;;;;3.13;2.00;;;5.30;99.90;;;;;;4993709;28;20463;-93
2021/04/11 07:34:27;;;;;;;2.83;2.20;;;5.40;99.90;;;;;;4971220;28;20078;-96
2021/04/11 07:37:11;;;;;;;3.28;2.10;;;5.40;99.90;;;;;;4961302;28;20059;-94
2021/04/11 07:39:57;;;;;;;4.75;2.00;;;5.40;99.90;;;;;;4981778;28;20033;-93
2021/04/11 07:43:08;;;;;;;2.67;1.83;;;5.40;99.90;;;;;;4967142;28;20018;-94
2021/04/11 07:45:59;;;;;;;3.72;2.10;;;5.40;99.90;;;;;;4957002;28;20031;-93
2021/04/11 07:48:34;;;;;;;3.90;1.97;;;5.40;99.90;;;;;;4995076;28;20054;-93
2021/04/11 07:51:17;;;;;;;5.18;2.63;;;5.40;99.90;;;;;;4995915;28;20336;-92
2021/04/11 07:54:20;;;;;;;4.82;2.50;;;5.40;99.80;;;;;;4971702;28;20039;-90
2021/04/11 07:57:05;;;;;;;5.00;2.63;;;5.40;99.70;;;;;;4966076;28;20054;-93
2021/04/11 08:00:06;;;;;;;6.30;2.70;;;5.30;99.50;;;;;;4970960;28;20097;-92
2021/04/11 08:03:07;;;;;;;7.15;2.72;;;5.30;99.70;;;;;;4932942;28;20062;-92
2021/04/11 08:06:03;;;;;;;6.13;2.70;;;5.30;99.50;;;;;;4980160;28;20033;-92
2021/04/11 08:08:56;;;;;;;6.45;2.63;;;5.30;99.70;;;;;;4995096;28;20505;-92
2021/04/11 08:11:46;;;;;;;3.08;2.05;;;5.30;99.60;;;;;;4988179;28;20034;-92
2021/04/11 08:14:27;;;;;;;5.20;2.75;;;5.30;99.70;;;;;;4990777;28;20026;-92
2021/04/11 08:17:00;;;;;;;8.23;3.38;;;5.30;99.60;;;;;;4993579;28;20030;-92
2021/04/11 08:19:26;;;;;;;5.07;2.40;;;5.30;99.60;;;;;;4988799;28;20037;-93
2021/04/11 08:22:20;;;;;;;4.50;2.20;;;5.30;99.60;;;;;;4995069;28;20040;-92
2021/04/11 08:24:49;;;;;;;3.67;2.20;;;5.30;99.40;;;;;;5004079;28;20026;-90
2021/04/11 08:27:57;;;;;;;5.38;2.53;;;5.30;99.50;;;;;;4978248;28;20054;-90
2021/04/11 08:30:42;;;;;;;5.07;2.28;;;5.30;99.50;;;;;;4935641;29;20039;-92
2021/04/11 08:33:11;;;;;;;4.90;2.45;;;5.30;99.50;;;;;;4917463;29;20039;-91
2021/04/11 08:35:55;;;;;;;4.88;2.10;;;5.40;99.60;;;;;;4956195;28;20054;-93
2021/04/11 08:38:58;;;;;;;3.80;1.85;;;5.40;99.50;;;;;;4964994;28;20537;-92
2021/04/11 08:41:48;;;;;;;4.32;2.00;;;5.40;99.50;;;;;;4970836;28;20109;-92
2021/04/11 08:44:19;;;;;;;3.30;2.03;;;5.40;99.30;;;;;;4974682;28;20438;-92
2021/04/11 08:47:10;;;;;;;4.05;2.00;;;5.50;99.30;;;;;;4988439;28;20033;-92
2021/04/11 08:49:50;;;;;;;3.45;1.92;;;5.50;99.40;;;;;;4965696;28;20097;-92
2021/04/11 08:52:45;;;;;;;4.10;1.80;;;5.50;99.50;;;;;;4981133;28;20041;-90
2021/04/11 08:55:51;;;;;;;5.93;1.90;;;5.50;99.60;;;;;;4983440;28;20060;-92
2021/04/11 08:58:41;;;;;;;3.20;1.80;;;5.60;99.70;;;;;;4995716;28;20030;-92
2021/04/11 09:01:27;;;;;;;3.13;1.63;;;5.70;99.80;;;;;;4984293;28;20122;-90
2021/04/11 09:04:16;;;;;;;4.70;2.03;;;5.70;99.60;;;;;;4978450;28;20033;-92
2021/04/11 09:07:13;;;;;;;3.58;1.80;;;5.80;99.80;;;;;;4983915;28;20046;-92
2021/04/11 09:09:53;;;;;;;3.22;1.63;;;5.80;99.80;;;;;;4978110;28;20105;-94
2021/04/11 09:12:48;;;;;;;4.32;1.90;;;5.90;99.80;;;;;;4996175;28;20038;-92
2021/04/11 09:15:40;;;;;;;3.55;1.85;;;6.00;99.80;;;;;;4970889;28;20045;-90
2021/04/11 09:18:09;;;;;;;3.90;1.45;;;6.00;99.50;;;;;;4979363;28;20029;-95
2021/04/11 09:20:56;;;;;;;4.35;1.65;;;6.00;99.70;;;;;;4980489;28;20034;-93
2021/04/11 09:24:03;;;;;;;2.97;1.52;;;6.10;99.30;;;;;;4999699;28;20026;-95
2021/04/11 09:26:40;;;;;;;4.25;1.58;;;6.00;99.10;;;;;;4981967;23;20051;-90
2021/04/11 09:29:51;;;;;;;3.05;1.80;;;6.10;99.40;;;;;;4967617;28;20054;-91
2021/04/11 09:32:37;;;;;;;2.15;1.45;;;6.10;99.50;;;;;;4958199;28;20037;-90
2021/04/11 09:35:50;;;;;;;4.30;1.70;;;6.10;99.40;;;;;;4967276;28;20673;-89
2021/04/11 09:38:40;;;;;;;3.80;1.90;;;6.20;99.50;;;;;;4946471;28;20932;-89
2021/04/11 09:41:31;;;;;;;4.05;1.23;;;6.20;99.50;;;;;;4941842;28;20030;-90
2021/04/11 09:44:12;;;;;;;;;;;6.30;99.50;;;;;;4961579;28;20023;-89
2021/04/11 09:47:02;;;;;;;3.42;1.30;;;6.30;99.00;;;;;;4962634;28;19912;-90
2021/04/11 09:49:42;;;;;;;3.50;1.27;;;6.30;99.20;;;;;;4950400;28;20026;-89
2021/04/11 09:52:19;;;;;;;2.92;1.50;;;6.30;99.30;;;;;;4963344;28;20027;-90
2021/04/11 09:55:01;;;;;;;2.75;1.25;;;6.30;99.40;;;;;;4946064;28;20556;-89
2021/04/11 09:57:45;;;;;;;6.00;1.33;;;6.40;99.40;;;;;;4958341;28;20450;-89
2021/04/11 10:00:55;;;;;;;2.47;1.10;;;6.40;99.30;;;;;;4970083;28;20089;-94
2021/04/11 10:04:06;;;;;;;2.33;1.13;;;6.50;99.50;;;;;;4950530;28;20031;-91
2021/04/11 10:07:10;;;;;;;2.03;1.10;;;6.50;99.40;;;;;;4954334;29;20038;-92
2021/04/11 10:09:54;;;;;;;2.92;1.30;;;6.60;99.30;;;;;;4948281;28;20026;-92
2021/04/11 10:13:09;;;;;;;3.13;1.20;;;6.70;99.20;;;;;;4968250;28;20031;-92
2021/04/11 10:16:06;;;;;;;1.52;1.05;;;6.70;98.80;;;;;;4942560;28;20059;-93
2021/04/11 10:19:17;;;;;;;4.53;2.15;;;6.70;98.90;;;;;;4960634;28;20030;-91
2021/04/11 10:22:21;;;;;;;3.08;1.42;;;6.70;98.70;;;;;;4960818;28;20038;-92
2021/04/11 10:25:10;;;;;;;1.65;1.17;;;6.80;99.10;;;;;;4926941;28;20039;-92
2021/04/11 10:27:45;;;;;;;3.17;1.25;;;6.80;99.20;;;;;;4963048;28;20476;-91
2021/04/11 10:30:15;;;;;;;29.00;3.58;;;6.80;98.50;;;;;;4959829;28;20039;-91
2021/04/11 10:32:47;;;;;;;3.35;1.42;;;6.70;97.80;;;;;;4959037;28;20085;-91
2021/04/11 10:35:57;;;;;;;2.17;1.30;;;6.70;97.90;;;;;;4960111;28;20114;-91
2021/04/11 10:38:39;;;;;;;3.83;1.33;;;6.80;98.20;;;;;;4948379;28;20034;-94
2021/04/11 10:41:31;;;;;;;5.28;1.45;;;6.80;97.60;;;;;;4962032;28;20270;-93
2021/04/11 10:44:28;;;;;;;4.57;1.20;;;6.80;97.60;;;;;;4961155;28;20027;-93
2021/04/11 10:47:16;;;;;;;3.15;1.30;;;6.80;97.80;;;;;;4961947;28;20031;-94
2021/04/11 10:50:20;;;;;;;2.28;1.30;;;6.80;97.90;;;;;;5023987;23;20064;-87
2021/04/11 10:53:01;;;;;;;3.50;1.38;;;6.80;98.20;;;;;;4997079;28;20474;-87
2021/04/11 10:55:54;;;;;;;3.28;1.17;;;6.80;98.30;;;;;;4997007;28;20052;-86
2021/04/11 10:58:40;;;;;;;2.58;1.20;;;6.80;98.60;;;;;;4996986;28;20058;-87
2021/04/11 11:01:44;;;;;;;3.80;1.50;;;6.90;98.80;;;;;;4977925;28;20030;-88
2021/04/11 11:04:22;;;;;;;3.83;1.55;;;7.00;99.20;;;;;;4986578;28;20502;-87
2021/04/11 11:07:15;;;;;;;7.03;1.50;;;7.10;99.10;;;;;;4997364;28;20072;-87
2021/04/11 11:09:54;;;;;;;4.65;1.70;;;7.20;99.30;;;;;;5013260;28;20097;-88
2021/04/11 11:12:30;;;;;;;4.38;1.50;;;7.30;99.10;;;;;;4995635;28;20033;-87
2021/04/11 11:15:26;;;;;;;6.80;1.50;;;7.30;99.10;;;;;;4996918;28;20463;-88
2021/04/11 11:17:51;;;;;;;5.05;1.40;;;7.40;98.90;;;;;;5000892;28;20604;-88
2021/04/11 11:20:31;;;;;;;5.53;1.50;;;7.40;98.70;;;;;;5006219;28;20026;-87
2021/04/11 11:23:25;;;;;;;3.83;1.27;;;7.40;98.40;;;;;;4999982;28;20022;-87
2021/04/11 11:26:18;;;;;;;3.50;1.10;;;7.40;98.20;;;;;;5007252;28;20018;-87
2021/04/11 11:29:01;;;;;;;3.72;1.40;;;7.40;98.30;;;;;;5003214;28;20054;-87
2021/04/11 11:32:04;;;;;;;2.60;1.00;;;7.40;98.20;;;;;;4996483;28;20558;-87
2021/04/11 11:34:38;;;;;;;4.22;1.23;;;7.40;98.40;;;;;;5000639;28;20112;-86
2021/04/11 11:37:19;;;;;;;5.85;1.30;;;7.50;98.60;;;;;;5015799;28;20128;-86
2021/04/11 11:40:11;;;;;;;1.90;1.20;;;7.50;98.60;;;;;;5015359;28;20032;-85
2021/04/11 11:42:54;;;;;;;2.88;1.20;;;7.60;98.70;;;;;;5015592;28;20078;-86
2021/04/11 11:45:23;;;;;;;2.05;0.95;;;7.60;98.40;;;;;;5005945;28;20034;-86
2021/04/11 11:47:51;;;;;;;2.95;1.20;;;7.60;98.10;;;;;;4997842;28;20075;-86
2021/04/11 11:50:29;;;;;;;2.58;1.08;;;7.70;97.70;;;;;;5015332;28;20072;-86
2021/04/11 11:53:09;;;;;;;3.85;1.08;;;7.60;97.50;;;;;;5018924;28;20037;-86
2021/04/11 11:56:00;;;;;;;1.98;1.00;;;7.60;97.60;;;;;;5006596;28;20371;-88
2021/04/11 11:59:03;;;;;;;1.92;1.17;;;7.60;97.80;;;;;;4992091;28;20048;-84
2021/04/11 12:02:31;;;;;;;4.43;1.10;;;7.70;97.60;;;;;;4992144;28;20438;-84
2021/04/11 12:05:14;;;;;;;2.78;1.20;;;7.70;97.70;;;;;;4916962;29;20404;-84
2021/04/11 12:08:03;;;;;;;4.57;1.77;;;7.70;97.60;;;;;;4983107;28;20524;-84
2021/04/11 12:10:45;;;;;;;3.22;1.23;;;7.70;97.20;;;;;;4995372;28;20117;-85
2021/04/11 12:13:13;;;;;;;4.00;1.58;;;7.70;97.60;;;;;;4995037;28;20026;-84
2021/04/11 12:15:54;;;;;;;3.60;1.40;;;7.70;97.80;;;;;;4995159;28;20563;-84
2021/04/11 12:18:30;;;;;;;2.53;1.13;;;7.90;97.90;;;;;;5011398;28;20144;-85
2021/04/11 12:21:08;;;;;;;4.43;1.80;;;7.90;97.90;;;;;;4995131;28;20068;-85
2021/04/11 12:24:02;;;;;;;1.92;1.30;;;8.00;97.60;;;;;;4994750;28;20387;-85
2021/04/11 12:26:32;;;;;;;4.32;1.45;;;8.00;97.20;;;;;;4995193;28;20383;-84
2021/04/11 12:29:07;;;;;;;1.88;1.05;;;8.10;96.80;;;;;;4995450;28;20451;-84
2021/04/11 12:31:43;;;;;;;3.55;1.17;;;8.10;96.70;;;;;;4994775;28;20037;-84
2021/04/11 12:34:23;;;;;;;2.17;1.02;;;8.10;96.50;;;;;;4994859;28;20026;-85
2021/04/11 12:37:04;;;;;;;6.28;1.17;;;8.10;96.70;;;;;;4994759;28;20036;-84
2021/04/11 12:39:34;;;;;;;2.97;1.00;;;8.10;96.30;;;;;;4994898;28;20045;-83
2021/04/11 12:42:18;;;;;;;2.33;1.10;;;8.10;96.70;;;;;;5012460;28;20038;-83
2021/04/11 12:45:16;;;;;;;2.65;1.33;;;8.10;96.10;;;;;;4994736;28;20446;-84
2021/04/11 12:47:51;;;;;;;5.00;1.38;;;8.10;96.00;;;;;;4994955;28;20482;-84
2021/04/11 12:50:29;;;;;;;4.53;1.33;;;8.00;95.70;;;;;;5009543;28;20042;-83
2021/04/11 12:53:19;;;;;;;3.47;1.05;;;8.00;96.00;;;;;;4994646;28;20029;-84
2021/04/11 12:55:51;;;;;;;4.82;1.02;;;8.00;96.40;;;;;;4994908;28;20038;-85
2021/04/11 12:58:35;;;;;;;1.88;0.90;;;8.00;96.30;;;;;;4994714;28;20112;-84
2021/04/11 13:01:06;;;;;;;1.85;0.82;;;7.90;95.40;;;;;;4994728;28;20117;-83
2021/04/11 13:03:46;;;;;;;3.15;1.17;;;7.90;95.00;;;;;;4994972;28;20022;-84
2021/04/11 13:13:16;;;;;;;3.75;1.20;;;7.80;95.10;;;;;;5010103;28;20117;-85
2021/04/11 13:16:11;;;;;;;2.28;0.70;;;7.80;94.80;;;;;;5001880;28;20088;-85
2021/04/11 13:18:58;;;;;;;2.88;1.00;;;7.80;95.20;;;;;;4980995;28;20034;-86
2021/04/11 13:21:42;;;;;;;3.53;1.05;;;7.80;95.10;;;;;;4989875;28;20041;-86
2021/04/11 13:24:22;;;;;;;3.35;1.02;;;8.00;95.60;;;;;;5004283;28;20034;-86
2021/04/11 13:27:13;;;;;;;2.03;1.20;;;8.20;96.20;;;;;;4997719;28;20030;-86
2021/04/11 13:30:15;;;;;;;1.48;0.85;;;8.50;96.50;;;;;;4991531;28;20376;-86
2021/04/11 13:33:18;;;;;;;2.03;0.77;;;8.70;95.80;;;;;;5024812;28;20037;-87
2021/04/11 13:36:00;;;;;;;1.83;0.63;;;8.90;95.10;;;;;;4999235;28;20030;-85
2021/04/11 13:38:38;;;;;;;4.03;0.88;;;9.00;94.50;;;;;;5014401;28;20021;-86
2021/04/11 13:41:17;;;;;;;1.00;0.60;;;8.90;92.50;;;;;;5016201;28;20026;-86
2021/04/11 13:43:52;;;;;;;3.20;1.02;;;9.00;92.60;;;;;;5007219;28;20105;-85
2021/04/11 13:46:37;;;;;;;3.20;0.80;;;9.00;92.60;;;;;;4993668;28;20475;-86
2021/04/11 13:49:39;;;;;;;1.52;0.90;;;9.00;92.90;;;;;;4992387;28;20438;-86
2021/04/11 13:52:23;;;;;;;2.10;0.82;;;8.90;91.90;;;;;;4998971;28;20050;-86
2021/04/11 13:54:57;;;;;;;4.68;0.90;;;8.80;91.70;;;;;;4998556;28;20127;-86
2021/04/11 13:57:34;;;;;;;5.68;1.75;;;8.80;91.50;;;;;;5000099;28;20112;-86
2021/04/11 14:00:26;;;;;;;2.20;0.80;;;8.80;92.40;;;;;;4988551;28;20048;-85
2021/04/11 14:02:53;;;;;;;4.13;0.82;;;8.80;91.80;;;;;;4991254;28;20026;-84
2021/04/11 14:05:25;;;;;;;4.03;0.88;;;8.70;91.60;;;;;;5017876;28;20018;-84
2021/04/11 14:08:06;;;;;;;3.00;1.00;;;8.60;92.20;;;;;;5000507;28;20391;-84
2021/04/11 14:10:47;;;;;;;3.65;1.00;;;8.60;91.60;;;;;;5014838;28;20022;-84
2021/04/11 14:13:28;;;;;;;2.33;0.80;;;8.50;92.10;;;;;;5008014;28;20022;-84
2021/04/11 14:16:23;;;;;;;0.75;0.52;;;8.70;92.10;;;;;;5024750;28;20025;-84